Malin Head, Ireland

1:05 PM IST on April 27, 2015 (GMT +0100)
Carndonagh | | Change Station
CLOSE
Current Station
Personal Weather Station
Location: Inishowen, DONEGAL
Elevation: 33 ft
Nearby Weather Stations

Elev 33 ft 55.27 °N, 7.24 °W | Updated 3 seconds ago

Scattered Clouds
Scattered Clouds
47.3 °F
Feels Like 43 °F
N
8.1
Wind Variable Wind from SSW
Gusts 9.8 mph

Today
High -- | Low -- °F
--% Chance of Precip.
Yesterday
High -- | Low -- °F
Precip. -- in
5:57 AM 8:57 PM
Waxing Gibbous, 64% visible
Pressure 29.71 in
Visibility 6.2 miles
Clouds Few 900 ft
Few 1400 ft
Scattered Clouds 1800 ft
Windchill 43 °F
Dew Point 34 °F
Humidity 59%
Rainfall 0.05 in
Snow Depth Not available.
UV 0.0 out of 12
Pollen Not available.
Air Quality Not available.
Flu Activity Not available.
METAR EGAE 271150Z 25014KT 9999 VCSH FEW009 FEW014CB SCT018 05/03 Q1006

More Conditions Fewer Conditions

Pressure 29.71 in
Visibility 6.2 miles
Clouds Few 900 ft
Few 1400 ft
Scattered Clouds 1800 ft
Windchill 43 °F
Dew Point 34 °F
Humidity 59%
Rainfall 0.05 in
Snow Depth Not available.
UV 0.0 out of 12
Pollen Not available.
Air Quality Not available.
Flu Activity Not available.
METAR EGAE 271150Z 25014KT 9999 VCSH FEW009 FEW014CB SCT018 05/03 Q1006

More Conditions Fewer Conditions

10-Day Weather Forecast

Almanac

Astronomy

Apr. 27, 2015 Rise Set
Actual Time
Civil Twilight
Nautical Twilight
Astronomical Twilight
Moon
Length of Visible Light
Length of Day
Tomorrow will be .
, % of the Moon is Illuminated

Today's Extremes

Country Highs Country Lows

Community

WunderPhotos

Upload Photos

1,817,284 photos uploaded!

WunderBlogs® & News

Nearby

Air Quality

  Air Quality AQ Index Pollutant
Not available.

Snow Depth

Station Depth Elevation

Earthquake Activity

City Distance Mag. Time & Date
Minimum magnitude displayed is 2.5.

Coastal Water Temperatures

Place Temperature

Stations

Nearby Weather Stations

Station Location Temp. Windchill Dew Point Humidity Wind Precip. Elev Updated Type